FW3345 Weather Reports


Display with metric or nautical units.
time (UTC)temp
F
wind
direction
speed
MPH
gust
MPH
rain 1hr
in
rain 24hr
in
rain mn
in
humidity
%
barometer
mb
20240303122955 54 360 0.0 0.0 0.00 0.00 0.00 94 1022.5
20240303121453 54 360 0.0 0.0 0.00 0.00 0.00 93 1022.2
20240303115954 54 360 0.0 2.0 0.00 0.00 0.00 93 1022.2
20240303114452 54 360 0.0 0.0 0.00 0.00 0.00 93 1022.1
20240303112953 54 360 0.0 0.0 0.00 0.00 0.00 93 1022.2
20240303111453 54 360 0.0 0.0 0.00 0.00 0.00 93 1022.1
20240303105954 54 360 0.0 0.0 0.00 0.00 0.00 93 1022.0
20240303104453 54 360 0.0 0.0 0.00 0.00 0.00 93 1022.0
20240303102955 54 360 0.0 0.0 0.00 0.00 0.00 93 1021.8
20240303101454 54 360 0.0 0.0 0.00 0.00 0.00 93 1021.8
20240303092955 54 360 0.0 0.0 0.00 0.01 0.00 93 1021.3
20240303091453 54 360 0.0 0.0 0.00 0.01 0.00 93 1021.3
20240303084453 53 360 0.0 0.0 0.00 0.01 0.00 93 1021.1
20240303081453 52 360 0.0 0.0 0.00 0.01 0.00 93 1021.0
20240303075955 52 360 0.0 0.0 0.00 0.01 0.00 93 1021.1
20240303072954 52 360 0.0 0.0 0.00 0.01 0.00 93 1021.2
20240303071453 51 360 0.0 0.0 0.00 0.01 0.00 92 1021.4
20240303065954 50 360 0.0 0.0 0.00 0.01 0.00 92 1021.3
20240303064452 51 360 0.0 0.0 0.00 0.01 0.00 92 1021.4
20240303062955 51 360 0.0 0.0 0.00 0.01 0.00 92 1021.7
20240303061452 50 360 0.0 0.0 0.00 0.01 0.00 92 1021.7
20240303054454 51 360 0.0 0.0 0.00 0.02 0.00 91 1021.7
20240303052956 51 360 0.0 0.0 0.00 0.02 0.00 91 1021.7
20240303051454 52 360 0.0 0.0 0.00 0.02 0.00 91 1021.6
20240303045955 52 360 0.0 0.0 0.00 0.03 0.02 92 1021.7
20240303044454 52 360 0.0 0.0 0.00 0.03 0.02 91 1021.8
20240303042956 52 360 0.0 0.0 0.00 0.03 0.02 91 1021.9
20240303041454 52 360 0.0 0.0 0.00 0.03 0.02 91 1022.0
20240303035955 52 360 0.0 0.0 0.00 0.04 0.02 91 1021.9
20240303034454 51 360 0.0 0.0 0.00 0.04 0.02 90 1021.8
20240303032955 52 360 0.0 0.0 0.00 0.04 0.02 89 1021.6
20240303031454 52 360 0.0 0.0 0.00 0.04 0.02 89 1021.7
20240303030007 53 360 0.0 0.0 0.00 0.04 0.02 89 1021.6
20240303024454 53 360 0.0 0.0 0.00 0.18 0.02 88 1021.5
20240303021454 54 360 0.0 0.0 0.00 0.18 0.02 87 1021.0
20240303015957 55 360 0.0 0.0 0.00 0.26 0.02 87 1021.0
20240303012956 56 360 0.0 0.0 0.00 0.26 0.02 86 1020.7
20240303011454 57 360 0.0 0.0 0.00 0.26 0.02 85 1020.7
20240303005955 57 360 0.0 0.0 0.00 0.40 0.02 85 1020.5
20240303004454 58 360 0.0 0.0 0.00 0.40 0.02 84 1020.4
20240303002956 58 360 0.0 0.0 0.00 0.40 0.02 83 1020.4
20240303001454 59 360 0.0 0.0 0.00 0.40 0.02 82 1020.3
20240302235955 60 360 0.0 0.0 0.00 0.52 0.02 81 1020.3
20240302234454 60 360 0.0 0.0 0.00 0.52 0.02 80 1020.1
20240302232956 62 360 0.0 0.0 0.00 0.52 0.02 78 1020.2
20240302231454 63 360 0.0 3.0 0.00 0.52 0.02 76 1020.2
20240302225957 63 360 0.0 2.0 0.00 0.67 0.02 75 1020.1
20240302222955 65 360 0.0 2.0 0.00 0.67 0.02 72 1020.0
20240302221454 66 360 0.0 2.0 0.00 0.67 0.02 71 1019.9
20240302215955 66 360 0.0 2.0 0.00 0.77 0.02 71 1019.7
20240302212956 67 360 0.0 2.0 0.00 0.77 0.02 68 1019.7
20240302204454 67 360 0.0 2.0 0.00 0.91 0.02 70 1019.8
20240302202955 67 360 0.0 2.0 0.00 0.91 0.02 70 1019.9
20240302201455 66 360 0.0 2.0 0.00 0.91 0.02 71 1020.2
20240302194454 64 360 0.0 2.0 0.00 1.00 0.02 72 1020.6
20240302184454 62 360 0.0 0.0 0.00 1.08 0.02 79 1021.0
20240302182955 60 360 0.0 2.0 0.00 1.08 0.02 80 1021.2
20240302181454 59 360 0.0 0.0 0.00 1.08 0.02 81 1021.6
20240302175955 58 360 0.0 2.0 0.00 1.11 0.02 83 1021.9
20240302174454 57 360 0.0 2.0 0.00 1.11 0.02 84 1022.0
20240302172955 56 360 0.0 2.0 0.00 1.11 0.02 86 1022.3
20240302171454 55 360 0.0 2.0 0.00 1.11 0.02 88 1022.4
20240302165956 54 360 0.0 2.0 0.00 1.13 0.02 89 1022.6
20240302164454 55 360 0.0 3.0 0.00 1.13 0.02 91 1022.8
20240302162955 53 360 0.0 1.0 0.00 1.13 0.02 92 1022.8
20240302161454 53 360 0.0 2.0 0.00 1.13 0.02 92 1022.9
20240302152955 51 360 0.0 2.0 0.00 1.16 0.02 94 1023.1
20240302151452 51 360 0.0 2.0 0.00 1.16 0.02 94 1023.0
20240302145954 50 360 0.0 2.0 0.00 1.20 0.02 94 1022.9
20240302144454 49 360 0.0 3.0 0.00 1.20 0.02 94 1022.9
20240302142956 48 360 1.0 5.0 0.00 1.20 0.02 94 1022.8
20240302141454 48 360 0.0 2.0 0.00 1.20 0.02 94 1022.7
20240302135955 48 360 0.0 2.0 0.00 1.20 0.02 94 1022.8
20240302134454 47 360 0.0 2.0 0.00 1.20 0.02 94 1022.8
20240302132955 47 360 1.0 4.0 0.00 1.20 0.02 94 1022.9
20240302131454 47 360 1.0 4.0 0.00 1.20 0.02 94 1022.9
20240302125954 47 360 0.0 4.0 0.00 1.20 0.02 94 1023.2
20240302124454 46 360 0.0 3.0 0.00 1.20 0.02 94 1023.1